Time;durP1;ratioP1;P1;durP2;ratioP2;P2;SDS_P1;SDS_P2;PMS_P1;PMS_P2;Temp;Humidity;BMP_temperature;BMP_pressure;BME280_temperature;BME280_humidity;BME280_pressure;Samples;Min_cycle;Max_cycle;Signal;HPM_P1;HPM_P2
2023/09/04 00:01:21;;;;;;;;;;;15.80;58.70;;;;;;5031025;28;19920;-64
2023/09/04 00:03:47;;;;;;;;;;;15.80;58.70;;;;;;5030770;28;19914;-64
2023/09/04 00:06:12;;;;;;;;;;;15.80;58.90;;;;;;5029886;28;20280;-64
2023/09/04 00:08:37;;;;;;;;;;;15.80;59.00;;;;;;5030700;28;19909;-64
2023/09/04 00:11:03;;;;;;;;;;;15.80;58.90;;;;;;5031354;28;19921;-64
2023/09/04 00:13:29;;;;;;;;;;;15.80;58.80;;;;;;5030677;28;19925;-65
2023/09/04 00:15:56;;;;;;;;;;;15.70;58.80;;;;;;5031135;28;20308;-63
2023/09/04 00:18:24;;;;;;;;;;;15.70;58.90;;;;;;5030858;28;20336;-65
2023/09/04 00:20:52;;;;;;;;;;;15.70;58.90;;;;;;5031137;28;19964;-66
2023/09/04 00:23:17;;;;;;;;;;;15.70;59.00;;;;;;5030775;28;19917;-66
2023/09/04 00:25:43;;;;;;;;;;;15.60;59.00;;;;;;5030742;28;19924;-66
2023/09/04 00:28:08;;;;;;;;;;;15.60;59.00;;;;;;5030836;28;19967;-65
2023/09/04 00:30:34;;;;;;;;;;;15.50;59.10;;;;;;5031005;28;19968;-66
2023/09/04 00:32:59;;;;;;;;;;;15.50;59.00;;;;;;5030380;28;19943;-66
2023/09/04 00:35:25;;;;;;;;;;;15.50;59.10;;;;;;5030901;28;19920;-66
2023/09/04 00:37:50;;;;;;;;;;;15.40;59.10;;;;;;5030313;28;19944;-66
2023/09/04 00:40:16;;;;;;;;;;;15.40;59.10;;;;;;5029643;28;20164;-66
2023/09/04 00:42:41;;;;;;;;;;;15.40;59.20;;;;;;5029943;28;19913;-65
2023/09/04 00:45:11;;;;;;;;;;;15.40;59.20;;;;;;5030629;28;19914;-65
2023/09/04 00:47:38;;;;;;;;;;;15.30;59.30;;;;;;5030130;28;20380;-66
2023/09/04 00:50:05;;;;;;;;;;;15.30;59.40;;;;;;5030453;28;20285;-65
2023/09/04 00:52:31;;;;;;;;;;;15.20;59.40;;;;;;5029569;28;20400;-66
2023/09/04 00:54:57;;;;;;;;;;;15.20;59.90;;;;;;5030343;28;20014;-65
2023/09/04 00:57:26;;;;;;;;;;;15.30;59.70;;;;;;5030327;28;19979;-65
2023/09/04 00:59:52;;;;;;;;;;;15.20;59.70;;;;;;5030541;28;19920;-67
2023/09/04 01:02:18;;;;;;;;;;;15.10;59.80;;;;;;5030685;28;19917;-66
2023/09/04 01:04:43;;;;;;;;;;;15.10;59.80;;;;;;5030369;28;20257;-63
2023/09/04 01:07:09;;;;;;;;;;;15.00;59.80;;;;;;5029938;28;19921;-66
2023/09/04 01:09:35;;;;;;;;;;;15.00;59.90;;;;;;5030026;28;20188;-65
2023/09/04 01:12:07;;;;;;;;;;;15.00;60.10;;;;;;5029814;28;19963;-66
2023/09/04 01:14:33;;;;;;;;;;;15.00;60.10;;;;;;5030029;28;20007;-66
2023/09/04 01:16:59;;;;;;;;;;;14.90;60.30;;;;;;5029460;28;19917;-64
2023/09/04 01:19:24;;;;;;;;;;;14.80;60.40;;;;;;5030106;28;19963;-64
2023/09/04 01:21:50;;;;;;;;;;;14.80;60.40;;;;;;5030297;28;20385;-65
2023/09/04 01:24:16;;;;;;;;;;;14.80;60.40;;;;;;5029819;28;19913;-65
2023/09/04 01:26:44;;;;;;;;;;;14.80;60.60;;;;;;5029490;28;20284;-65
2023/09/04 01:29:23;;;;;;;;;;;14.70;60.60;;;;;;5029816;28;19917;-65
2023/09/04 01:31:48;;;;;;;;;;;14.70;60.90;;;;;;5029530;28;19932;-65
2023/09/04 01:34:16;;;;;;;;;;;14.70;61.40;;;;;;5029772;28;19909;-65
2023/09/04 01:36:42;;;;;;;;;;;14.70;61.40;;;;;;5029279;28;19917;-65
2023/09/04 01:39:09;;;;;;;;;;;14.70;61.40;;;;;;5029476;28;19921;-65
2023/09/04 01:41:37;;;;;;;;;;;14.60;61.40;;;;;;5029606;28;20349;-65
2023/09/04 01:44:02;;;;;;;;;;;14.60;61.60;;;;;;5029492;28;20454;-65
2023/09/04 01:46:28;;;;;;;;;;;14.60;61.70;;;;;;5029794;28;19917;-65
2023/09/04 01:48:53;;;;;;;;;;;14.60;61.80;;;;;;5029316;28;19974;-65
2023/09/04 01:51:19;;;;;;;;;;;14.50;61.80;;;;;;5028140;28;20377;-65
2023/09/04 01:53:44;;;;;;;;;;;14.50;62.00;;;;;;5029121;28;19967;-65
2023/09/04 01:56:10;;;;;;;;;;;14.50;62.10;;;;;;5029540;28;19921;-65
2023/09/04 01:58:35;;;;;;;;;;;14.50;62.20;;;;;;5028057;28;20387;-66
2023/09/04 02:01:00;;;;;;;;;;;14.40;62.30;;;;;;5030062;28;20031;-66
2023/09/04 02:03:26;;;;;;;;;;;14.40;62.40;;;;;;5029315;28;19914;-65
2023/09/04 02:05:52;;;;;;;;;;;14.30;62.40;;;;;;5031565;28;19917;-65
2023/09/04 02:08:17;;;;;;;;;;;14.30;62.60;;;;;;5033064;28;20011;-65
2023/09/04 02:10:43;;;;;;;;;;;14.30;62.70;;;;;;5033317;28;19913;-65
2023/09/04 02:13:08;;;;;;;;;;;14.30;62.70;;;;;;5032743;28;20415;-65
2023/09/04 02:15:35;;;;;;;;;;;14.30;62.70;;;;;;5032236;28;19913;-66
2023/09/04 02:18:03;;;;;;;;;;;14.30;62.80;;;;;;5033283;28;19920;-66
2023/09/04 02:20:29;;;;;;;;;;;14.20;62.90;;;;;;5033191;28;19957;-66
2023/09/04 02:22:55;;;;;;;;;;;14.20;63.00;;;;;;5032876;28;20435;-65
2023/09/04 02:25:21;;;;;;;;;;;14.20;63.00;;;;;;5033129;28;19917;-66
2023/09/04 02:27:46;;;;;;;;;;;14.10;63.00;;;;;;5032330;28;19995;-66
2023/09/04 02:30:11;;;;;;;;;;;14.10;63.20;;;;;;5033076;28;19949;-66
2023/09/04 02:32:37;;;;;;;;;;;14.10;63.30;;;;;;5032770;28;19924;-66
2023/09/04 02:35:03;;;;;;;;;;;14.00;63.30;;;;;;5032777;28;20213;-66
2023/09/04 02:37:28;;;;;;;;;;;14.10;63.50;;;;;;5032514;28;19917;-66
2023/09/04 02:39:54;;;;;;;;;;;14.00;63.50;;;;;;5032721;28;20369;-65
2023/09/04 02:42:19;;;;;;;;;;;14.10;63.60;;;;;;5032307;28;20369;-66
2023/09/04 02:44:45;;;;;;;;;;;14.00;63.80;;;;;;5032467;28;19987;-66
2023/09/04 02:47:10;;;;;;;;;;;14.00;63.80;;;;;;5032725;28;19913;-66
2023/09/04 02:49:35;;;;;;;;;;;14.00;63.90;;;;;;5032303;28;19920;-66
2023/09/04 02:52:01;;;;;;;;;;;13.90;63.80;;;;;;5032134;28;19921;-66
2023/09/04 02:54:26;;;;;;;;;;;13.80;63.90;;;;;;5032263;28;19949;-67
2023/09/04 02:56:52;;;;;;;;;;;13.80;64.00;;;;;;5032400;28;19918;-66
2023/09/04 02:59:17;;;;;;;;;;;13.80;64.20;;;;;;5032263;28;19971;-68
2023/09/04 03:01:43;;;;;;;;;;;13.80;64.40;;;;;;5032375;28;19960;-66
2023/09/04 03:04:08;;;;;;;;;;;13.80;64.70;;;;;;5031905;28;19917;-67
2023/09/04 03:06:34;;;;;;;;;;;13.70;64.90;;;;;;5032216;28;19960;-66
2023/09/04 03:08:59;;;;;;;;;;;13.70;65.10;;;;;;5031992;28;19959;-66
2023/09/04 03:11:25;;;;;;;;;;;13.70;65.30;;;;;;5032168;28;19920;-67
2023/09/04 03:13:50;;;;;;;;;;;13.70;65.50;;;;;;5031747;28;19913;-67
2023/09/04 03:16:15;;;;;;;;;;;13.70;65.60;;;;;;5031607;28;19913;-66
2023/09/04 03:18:41;;;;;;;;;;;13.70;65.70;;;;;;5031833;28;20000;-66
2023/09/04 03:21:07;;;;;;;;;;;13.70;65.70;;;;;;5031981;28;19913;-67
2023/09/04 03:23:32;;;;;;;;;;;13.70;65.80;;;;;;5031727;28;19964;-66
2023/09/04 03:25:58;;;;;;;;;;;13.60;65.80;;;;;;5032086;28;19913;-66
2023/09/04 03:28:23;;;;;;;;;;;13.60;65.80;;;;;;5031764;28;19966;-67
2023/09/04 03:30:49;;;;;;;;;;;13.60;65.80;;;;;;5032242;28;19940;-67
2023/09/04 03:33:15;;;;;;;;;;;13.60;65.80;;;;;;5031486;28;19924;-66
2023/09/04 03:35:40;;;;;;;;;;;13.50;65.80;;;;;;5032006;28;19917;-66
2023/09/04 03:38:06;;;;;;;;;;;13.50;65.80;;;;;;5031358;28;19913;-66
2023/09/04 03:40:31;;;;;;;;;;;13.50;65.90;;;;;;5031429;28;19913;-67
2023/09/04 03:42:57;;;;;;;;;;;13.40;65.80;;;;;;5031455;28;20556;-66
2023/09/04 03:45:23;;;;;;;;;;;13.40;65.80;;;;;;5031567;28;19913;-67
2023/09/04 03:47:49;;;;;;;;;;;13.40;65.90;;;;;;5031244;28;19983;-67
2023/09/04 03:50:14;;;;;;;;;;;13.30;66.00;;;;;;5031372;28;19917;-67
2023/09/04 03:52:40;;;;;;;;;;;13.30;66.00;;;;;;5031212;28;19917;-66
2023/09/04 03:55:07;;;;;;;;;;;13.30;66.10;;;;;;5031445;28;20382;-66
2023/09/04 03:57:32;;;;;;;;;;;13.30;66.20;;;;;;5030307;28;20009;-67
2023/09/04 03:59:57;;;;;;;;;;;13.30;66.20;;;;;;5031274;28;20115;-67
2023/09/04 04:02:23;;;;;;;;;;;13.30;66.20;;;;;;5031368;28;20266;-67
2023/09/04 04:04:51;;;;;;;;;;;13.20;66.30;;;;;;5030657;28;19921;-66
2023/09/04 04:07:17;;;;;;;;;;;13.20;66.40;;;;;;5031123;28;20292;-66
2023/09/04 04:09:44;;;;;;;;;;;13.20;66.40;;;;;;5030918;28;20008;-67
2023/09/04 04:12:10;;;;;;;;;;;13.20;66.40;;;;;;5030758;28;19964;-66
2023/09/04 04:14:35;;;;;;;;;;;13.10;66.30;;;;;;5030602;28;19956;-66
2023/09/04 04:17:01;;;;;;;;;;;13.10;66.40;;;;;;5030671;28;19940;-66
2023/09/04 04:19:27;;;;;;;;;;;13.10;66.50;;;;;;5031090;28;19910;-66
2023/09/04 04:21:52;;;;;;;;;;;13.10;66.60;;;;;;5030814;28;19917;-66
2023/09/04 04:24:19;;;;;;;;;;;13.10;66.60;;;;;;5030476;28;19917;-66
2023/09/04 04:26:45;;;;;;;;;;;13.10;66.50;;;;;;5030382;28;20385;-66
2023/09/04 04:29:10;;;;;;;;;;;13.00;66.40;;;;;;5029528;28;19909;-67
2023/09/04 04:31:36;;;;;;;;;;;13.00;66.40;;;;;;5030232;28;19921;-67
2023/09/04 04:34:02;;;;;;;;;;;13.00;66.60;;;;;;5030053;28;19940;-66
2023/09/04 04:36:27;;;;;;;;;;;13.00;66.70;;;;;;5030978;28;20051;-67
2023/09/04 04:38:53;;;;;;;;;;;13.00;66.70;;;;;;5030321;28;19917;-68
2023/09/04 04:41:18;;;;;;;;;;;13.00;66.70;;;;;;5030273;28;19925;-66
2023/09/04 04:43:44;;;;;;;;;;;13.00;66.80;;;;;;5030165;28;19913;-67
2023/09/04 04:46:12;;;;;;;;;;;13.00;67.10;;;;;;5030104;28;19917;-67
2023/09/04 04:48:38;;;;;;;;;;;13.00;67.20;;;;;;5029670;28;20518;-68
2023/09/04 04:51:03;;;;;;;;;;;13.00;67.20;;;;;;5030290;28;19928;-68
2023/09/04 04:53:29;;;;;;;;;;;13.10;67.30;;;;;;5030897;28;19921;-68
2023/09/04 04:55:55;;;;;;;;;;;13.20;67.70;;;;;;5030635;28;19979;-68
2023/09/04 04:58:21;;;;;;;;;;;13.30;68.10;;;;;;5030059;28;19913;-68
2023/09/04 05:00:46;;;;;;;;;;;13.50;68.50;;;;;;5026816;28;20371;-68
2023/09/04 05:03:12;;;;;;;;;;;13.80;68.80;;;;;;5010067;28;19913;-67
2023/09/04 05:05:43;;;;;;;;;;;14.10;68.90;;;;;;5010589;28;19914;-68
2023/09/04 05:08:08;;;;;;;;;;;14.40;69.10;;;;;;5010161;28;19920;-67
2023/09/04 05:10:34;;;;;;;;;;;14.70;69.40;;;;;;5010773;28;19913;-68
2023/09/04 05:12:59;;;;;;;;;;;15.00;69.60;;;;;;5010140;28;19918;-68
2023/09/04 05:15:25;;;;;;;;;;;15.40;69.80;;;;;;5020451;28;19939;-68
2023/09/04 05:17:50;;;;;;;;;;;15.80;70.00;;;;;;5029876;28;19913;-68
2023/09/04 05:20:15;;;;;;;;;;;16.20;70.10;;;;;;5026262;28;19918;-67
2023/09/04 05:22:41;;;;;;;;;;;16.70;70.10;;;;;;5028014;28;19913;-68
2023/09/04 05:25:07;;;;;;;;;;;17.00;70.10;;;;;;5030046;28;19921;-68
2023/09/04 05:27:33;;;;;;;;;;;17.40;69.50;;;;;;5021712;28;20373;-67
2023/09/04 05:29:58;;;;;;;;;;;17.80;69.40;;;;;;5009944;28;19928;-67
2023/09/04 05:32:24;;;;;;;;;;;18.20;69.40;;;;;;5015535;28;19957;-68
2023/09/04 05:34:53;;;;;;;;;;;18.60;69.60;;;;;;5029833;28;19936;-67
2023/09/04 05:37:18;;;;;;;;;;;19.00;69.90;;;;;;5024335;28;20442;-67
2023/09/04 05:39:43;;;;;;;;;;;19.40;69.90;;;;;;5011568;28;19913;-67
2023/09/04 05:42:09;;;;;;;;;;;19.80;69.70;;;;;;5014181;28;19917;-67
2023/09/04 05:44:34;;;;;;;;;;;20.30;69.50;;;;;;5015774;28;20007;-67
2023/09/04 05:47:00;;;;;;;;;;;20.70;69.10;;;;;;5020465;28;19917;-67
2023/09/04 05:49:26;;;;;;;;;;;21.00;69.00;;;;;;5013860;28;19920;-66
2023/09/04 05:51:52;;;;;;;;;;;21.40;68.70;;;;;;5013562;28;20321;-66
2023/09/04 05:54:18;;;;;;;;;;;21.80;68.30;;;;;;5030333;28;20372;-67
2023/09/04 05:56:43;;;;;;;;;;;22.10;68.00;;;;;;5033292;28;19925;-67
2023/09/04 05:59:09;;;;;;;;;;;22.40;67.90;;;;;;5030341;28;20364;-67
2023/09/04 06:01:34;;;;;;;;;;;22.70;67.70;;;;;;5013693;28;19913;-67
2023/09/04 06:04:00;;;;;;;;;;;23.00;67.20;;;;;;5027053;28;20000;-67
2023/09/04 06:06:25;;;;;;;;;;;23.30;66.90;;;;;;5033472;28;19925;-67
2023/09/04 06:08:51;;;;;;;;;;;23.50;66.70;;;;;;5022517;28;19909;-67
2023/09/04 06:11:17;;;;;;;;;;;23.80;66.60;;;;;;5013607;28;19920;-67
2023/09/04 06:13:42;;;;;;;;;;;24.00;66.60;;;;;;5025366;28;19939;-67
2023/09/04 06:16:08;;;;;;;;;;;24.30;66.80;;;;;;5033026;28;19913;-67
2023/09/04 06:18:35;;;;;;;;;;;24.60;66.10;;;;;;5033132;28;20371;-67
2023/09/04 06:21:00;;;;;;;;;;;24.90;66.10;;;;;;5033419;28;19988;-66
2023/09/04 06:23:26;;;;;;;;;;;25.30;66.50;;;;;;5032910;28;20365;-66
2023/09/04 06:25:51;;;;;;;;;;;25.70;66.20;;;;;;5023444;28;19917;-66
2023/09/04 06:28:17;;;;;;;;;;;26.10;66.50;;;;;;5014206;28;20012;-67
2023/09/04 06:30:44;;;;;;;;;;;26.50;66.10;;;;;;5011815;28;19914;-67
2023/09/04 06:33:10;;;;;;;;;;;26.80;65.90;;;;;;5012637;28;20447;-68
2023/09/04 06:35:35;;;;;;;;;;;27.20;65.80;;;;;;5013554;28;19945;-68
2023/09/04 06:38:01;;;;;;;;;;;27.50;66.00;;;;;;5013304;28;20443;-67
2023/09/04 06:40:26;;;;;;;;;;;27.90;66.20;;;;;;5012647;28;19976;-67
2023/09/04 06:42:55;;;;;;;;;;;28.30;66.30;;;;;;5013182;28;19971;-67
2023/09/04 06:45:21;;;;;;;;;;;28.60;66.50;;;;;;5021058;28;19948;-67
2023/09/04 06:47:46;;;;;;;;;;;29.00;66.80;;;;;;5032673;28;19967;-67
2023/09/04 06:50:12;;;;;;;;;;;29.40;66.50;;;;;;5032449;28;19913;-67
2023/09/04 06:52:37;;;;;;;;;;;29.80;66.30;;;;;;5031583;28;19968;-67
2023/09/04 06:55:03;;;;;;;;;;;30.10;66.00;;;;;;5032480;28;20007;-67
2023/09/04 06:57:29;;;;;;;;;;;30.30;65.60;;;;;;5032661;28;19921;-67
2023/09/04 06:59:55;;;;;;;;;;;30.60;65.80;;;;;;5032645;28;20262;-68
2023/09/04 07:02:20;;;;;;;;;;;30.90;65.80;;;;;;5032443;28;20015;-68
2023/09/04 07:04:46;;;;;;;;;;;31.10;64.90;;;;;;5032382;28;19996;-68
2023/09/04 07:07:11;;;;;;;;;;;31.40;64.90;;;;;;5032409;28;19921;-66
2023/09/04 07:09:37;;;;;;;;;;;31.70;64.60;;;;;;5031985;28;19913;-68
2023/09/04 07:12:03;;;;;;;;;;;31.90;64.00;;;;;;5032244;28;19921;-68
2023/09/04 07:14:28;;;;;;;;;;;32.10;62.40;;;;;;5030961;28;19909;-67
2023/09/04 07:16:54;;;;;;;;;;;32.20;62.20;;;;;;5032145;28;19924;-68
2023/09/04 07:19:19;;;;;;;;;;;32.20;62.20;;;;;;5031975;28;20376;-68
2023/09/04 07:21:45;;;;;;;;;;;32.40;61.80;;;;;;5031967;28;19921;-68
2023/09/04 07:24:10;;;;;;;;;;;32.40;60.90;;;;;;5031874;28;19931;-68
2023/09/04 07:26:36;;;;;;;;;;;32.40;60.90;;;;;;5031727;28;19945;-68
2023/09/04 07:29:01;;;;;;;;;;;32.70;61.80;;;;;;5031931;28;19909;-68
2023/09/04 07:31:28;;;;;;;;;;;32.80;59.50;;;;;;5031915;28;19924;-68
2023/09/04 07:33:53;;;;;;;;;;;32.80;57.90;;;;;;5032273;28;20304;-68
2023/09/04 07:36:19;;;;;;;;;;;32.80;59.70;;;;;;5032289;28;19921;-67
2023/09/04 07:38:45;;;;;;;;;;;33.10;60.10;;;;;;5031533;28;19913;-67
2023/09/04 07:41:10;;;;;;;;;;;33.30;60.00;;;;;;5031601;28;20443;-68
2023/09/04 07:43:36;;;;;;;;;;;33.60;60.00;;;;;;5031412;28;19913;-67
2023/09/04 07:46:02;;;;;;;;;;;33.90;59.20;;;;;;5031927;28;19921;-68
2023/09/04 07:48:28;;;;;;;;;;;34.20;58.90;;;;;;5031306;28;19963;-67
2023/09/04 07:50:53;;;;;;;;;;;34.60;58.60;;;;;;5031635;28;19917;-68
2023/09/04 07:53:19;;;;;;;;;;;34.80;55.70;;;;;;5031336;28;19976;-68
2023/09/04 07:55:45;;;;;;;;;;;35.10;54.40;;;;;;5031652;28;20285;-68
2023/09/04 07:58:10;;;;;;;;;;;35.30;52.30;;;;;;5031416;28;19913;-68
2023/09/04 08:00:36;;;;;;;;;;;35.50;51.50;;;;;;5031698;28;19982;-68
2023/09/04 08:03:02;;;;;;;;;;;35.60;48.00;;;;;;5029714;28;19964;-67
2023/09/04 08:05:28;;;;;;;;;;;35.60;48.00;;;;;;5030937;28;19913;-66
2023/09/04 08:07:53;;;;;;;;;;;35.80;46.30;;;;;;5031172;28;20392;-67
2023/09/04 08:10:19;;;;;;;;;;;36.00;45.60;;;;;;5031255;28;19925;-67
2023/09/04 08:12:44;;;;;;;;;;;36.30;45.30;;;;;;5030814;28;19921;-67
2023/09/04 08:15:10;;;;;;;;;;;36.60;42.20;;;;;;5031424;28;19917;-67
2023/09/04 08:17:36;;;;;;;;;;;36.70;38.80;;;;;;5030878;28;19956;-68
2023/09/04 08:20:02;;;;;;;;;;;36.80;39.80;;;;;;5031222;28;19913;-68
2023/09/04 08:22:27;;;;;;;;;;;37.00;38.40;;;;;;5030303;28;19920;-67
2023/09/04 08:24:55;;;;;;;;;;;37.20;38.70;;;;;;5030895;28;19940;-67
2023/09/04 08:27:21;;;;;;;;;;;37.30;36.50;;;;;;5030781;28;20313;-67
2023/09/04 08:29:46;;;;;;;;;;;37.40;35.30;;;;;;5030646;28;20023;-68
2023/09/04 08:32:12;;;;;;;;;;;37.30;33.90;;;;;;5030841;28;19940;-67
2023/09/04 08:34:38;;;;;;;;;;;37.30;33.90;;;;;;5030746;28;19913;-68
2023/09/04 08:37:03;;;;;;;;;;;37.60;34.20;;;;;;5030756;28;20395;-69
2023/09/04 08:39:29;;;;;;;;;;;37.80;33.70;;;;;;5030875;28;19917;-68
2023/09/04 08:41:55;;;;;;;;;;;38.00;33.00;;;;;;5030304;28;20637;-68
2023/09/04 08:44:20;;;;;;;;;;;38.10;32.30;;;;;;5030471;28;19928;-68
2023/09/04 08:46:47;;;;;;;;;;;38.10;31.20;;;;;;5030518;28;19920;-68
2023/09/04 08:49:14;;;;;;;;;;;37.90;30.40;;;;;;5030405;28;19967;-67
2023/09/04 08:51:39;;;;;;;;;;;37.80;30.70;;;;;;5030231;28;20011;-66
2023/09/04 08:54:05;;;;;;;;;;;37.90;30.80;;;;;;5030392;28;20004;-67
2023/09/04 08:56:31;;;;;;;;;;;38.00;30.30;;;;;;5030239;28;19921;-67
2023/09/04 08:58:56;;;;;;;;;;;38.00;30.20;;;;;;5029781;28;19920;-67
2023/09/04 09:01:26;;;;;;;;;;;38.10;30.00;;;;;;5029978;28;19921;-67
2023/09/04 09:03:52;;;;;;;;;;;38.10;29.00;;;;;;5029871;28;20204;-67
2023/09/04 09:06:17;;;;;;;;;;;38.10;28.80;;;;;;5030232;28;19914;-67
2023/09/04 09:08:44;;;;;;;;;;;38.20;27.90;;;;;;5028610;28;19916;-67
2023/09/04 09:11:11;;;;;;;;;;;37.90;27.40;;;;;;5030208;28;20385;-67
2023/09/04 09:13:38;;;;;;;;;;;37.80;28.00;;;;;;5029394;28;20392;-67
2023/09/04 09:16:03;;;;;;;;;;;37.80;27.30;;;;;;5030199;28;19924;-67
2023/09/04 09:18:40;;;;;;;;;;;37.70;27.20;;;;;;5029957;28;20296;-68
2023/09/04 09:21:21;;;;;;;;;;;37.80;27.40;;;;;;5030521;28;20432;-67
2023/09/04 09:23:47;;;;;;;;;;;37.90;27.10;;;;;;5029563;28;20079;-69
2023/09/04 09:26:14;;;;;;;;;;;37.80;26.60;;;;;;5029961;28;20008;-67
2023/09/04 09:28:41;;;;;;;;;;;37.80;26.80;;;;;;5029920;28;20296;-68
2023/09/04 09:31:07;;;;;;;;;;;37.80;26.30;;;;;;5030526;28;19913;-68
2023/09/04 09:33:34;;;;;;;;;;;37.80;25.90;;;;;;5029721;28;19917;-67
2023/09/04 09:35:59;;;;;;;;;;;37.80;26.10;;;;;;5030266;28;19917;-67
2023/09/04 09:38:25;;;;;;;;;;;37.70;26.10;;;;;;5030217;28;19917;-68
2023/09/04 09:40:50;;;;;;;;;;;37.40;26.20;;;;;;5029224;28;20288;-67
2023/09/04 09:43:16;;;;;;;;;;;37.30;26.00;;;;;;5029827;28;19917;-68
2023/09/04 09:45:41;;;;;;;;;;;37.20;26.20;;;;;;5030015;28;20003;-68
2023/09/04 09:48:07;;;;;;;;;;;37.30;26.60;;;;;;5029902;28;20436;-68
2023/09/04 09:50:34;;;;;;;;;;;37.40;26.80;;;;;;5028152;28;19913;-68
2023/09/04 09:53:01;;;;;;;;;;;37.80;26.80;;;;;;5029797;28;19972;-68
2023/09/04 09:55:28;;;;;;;;;;;37.90;26.10;;;;;;5030246;28;20384;-68
2023/09/04 09:57:54;;;;;;;;;;;37.90;25.60;;;;;;5030082;28;20396;-69
2023/09/04 10:00:19;;;;;;;;;;;37.70;25.70;;;;;;5029910;28;19917;-67
2023/09/04 10:02:45;;;;;;;;;;;37.70;26.00;;;;;;5029847;28;20004;-67
2023/09/04 10:05:11;;;;;;;;;;;37.80;25.40;;;;;;5030040;28;20415;-68
2023/09/04 10:07:38;;;;;;;;;;;37.70;25.30;;;;;;5029715;28;19913;-67
2023/09/04 10:10:05;;;;;;;;;;;37.60;25.60;;;;;;5030149;28;19917;-68
2023/09/04 10:12:35;;;;;;;;;;;37.70;25.80;;;;;;5029498;28;19917;-68
2023/09/04 10:15:05;;;;;;;;;;;37.70;25.60;;;;;;5029642;28;19949;-67
2023/09/04 10:17:35;;;;;;;;;;;37.80;25.80;;;;;;5029204;28;20426;-68
2023/09/04 10:20:02;;;;;;;;;;;37.90;25.70;;;;;;5029790;28;19921;-67
2023/09/04 10:22:33;;;;;;;;;;;38.10;25.40;;;;;;5029742;28;19913;-68
2023/09/04 10:25:05;;;;;;;;;;;38.10;25.00;;;;;;5028756;28;19940;-68
2023/09/04 10:27:32;;;;;;;;;;;38.10;25.50;;;;;;5033113;28;19913;-68
2023/09/04 10:30:01;;;;;;;;;;;38.30;25.40;;;;;;5033452;28;20377;-69
2023/09/04 10:32:27;;;;;;;;;;;38.30;25.30;;;;;;5033081;28;19917;-68
2023/09/04 10:34:53;;;;;;;;;;;38.30;24.90;;;;;;5033018;28;20365;-69
2023/09/04 10:37:18;;;;;;;;;;;38.40;24.80;;;;;;5033072;28;19918;-68
2023/09/04 10:39:44;;;;;;;;;;;38.60;24.50;;;;;;5032908;28;20209;-67
2023/09/04 10:42:11;;;;;;;;;;;38.70;24.40;;;;;;5032770;28;20372;-66
2023/09/04 10:44:44;;;;;;;;;;;38.70;24.20;;;;;;5032269;28;19917;-67
2023/09/04 10:47:10;;;;;;;;;;;38.70;24.60;;;;;;5032786;28;20427;-66
2023/09/04 10:49:35;;;;;;;;;;;38.70;24.00;;;;;;5032706;28;20005;-66
2023/09/04 10:52:00;;;;;;;;;;;38.70;24.30;;;;;;5032685;28;20470;-66
2023/09/04 10:54:27;;;;;;;;;;;38.60;24.00;;;;;;5032323;28;20376;-66
2023/09/04 10:56:59;;;;;;;;;;;38.50;24.10;;;;;;5032451;28;19913;-67
2023/09/04 10:59:25;;;;;;;;;;;38.40;24.20;;;;;;5032524;28;19913;-67
2023/09/04 11:01:51;;;;;;;;;;;38.30;24.00;;;;;;5032436;28;19920;-66
2023/09/04 11:04:26;;;;;;;;;;;38.30;24.40;;;;;;5032488;28;19921;-66
2023/09/04 11:07:11;;;;;;;;;;;38.20;24.00;;;;;;5032215;28;20443;-67
2023/09/04 11:09:36;;;;;;;;;;;38.00;24.10;;;;;;5030621;28;19917;-68
2023/09/04 11:12:02;;;;;;;;;;;37.80;24.30;;;;;;5032144;28;20368;-66
2023/09/04 11:14:32;;;;;;;;;;;37.70;24.40;;;;;;5032176;28;19947;-67
2023/09/04 11:17:02;;;;;;;;;;;37.70;24.40;;;;;;5032019;28;19960;-67
2023/09/04 11:19:28;;;;;;;;;;;37.60;24.40;;;;;;5032243;28;19921;-66
2023/09/04 11:21:54;;;;;;;;;;;37.60;24.40;;;;;;5031877;28;19913;-66
2023/09/04 11:24:22;;;;;;;;;;;37.50;24.50;;;;;;5031987;28;20336;-67
2023/09/04 11:26:48;;;;;;;;;;;37.40;24.40;;;;;;5031686;28;19913;-67
2023/09/04 11:29:13;;;;;;;;;;;37.30;24.60;;;;;;5032052;28;20492;-67
2023/09/04 11:31:39;;;;;;;;;;;37.30;24.60;;;;;;5031348;28;20328;-67
2023/09/04 11:34:05;;;;;;;;;;;37.10;23.90;;;;;;5031735;28;19917;-66
2023/09/04 11:36:30;;;;;;;;;;;36.70;24.30;;;;;;5031707;28;19921;-67
2023/09/04 11:39:06;;;;;;;;;;;36.50;24.80;;;;;;5031360;28;20464;-66
2023/09/04 11:41:31;;;;;;;;;;;36.50;25.20;;;;;;5031532;28;19913;-66
2023/09/04 11:43:57;;;;;;;;;;;36.50;25.00;;;;;;5031410;28;20412;-67
2023/09/04 11:46:22;;;;;;;;;;;36.50;25.30;;;;;;5031401;28;19920;-66
2023/09/04 11:48:48;;;;;;;;;;;36.60;25.50;;;;;;5031010;28;19913;-66
2023/09/04 11:51:13;;;;;;;;;;;36.60;25.20;;;;;;5031236;28;19921;-66
2023/09/04 11:53:39;;;;;;;;;;;36.50;25.40;;;;;;5031485;28;19917;-66
2023/09/04 11:56:05;;;;;;;;;;;36.50;25.60;;;;;;5031771;28;19917;-66
2023/09/04 11:58:30;;;;;;;;;;;36.30;25.20;;;;;;5031276;28;19917;-66
2023/09/04 12:00:56;;;;;;;;;;;35.90;25.60;;;;;;5031417;28;19917;-67
2023/09/04 12:03:22;;;;;;;;;;;35.80;25.90;;;;;;5031249;28;20021;-66
2023/09/04 12:05:51;;;;;;;;;;;35.60;25.70;;;;;;5031359;28;20363;-66
2023/09/04 12:08:17;;;;;;;;;;;35.40;25.70;;;;;;5030921;28;20288;-66
2023/09/04 12:10:43;;;;;;;;;;;35.30;26.40;;;;;;5031491;28;19959;-66
2023/09/04 12:13:09;;;;;;;;;;;35.30;26.40;;;;;;5031063;28;20343;-65
2023/09/04 12:15:34;;;;;;;;;;;35.10;26.70;;;;;;5031165;28;19913;-66
2023/09/04 12:18:03;;;;;;;;;;;34.90;26.90;;;;;;5029489;28;19925;-66
2023/09/04 12:20:35;;;;;;;;;;;34.80;27.10;;;;;;5031168;28;20584;-66
2023/09/04 12:23:01;;;;;;;;;;;34.60;27.40;;;;;;5030781;28;19913;-67
2023/09/04 12:25:37;;;;;;;;;;;34.40;27.40;;;;;;5030742;28;19921;-67
2023/09/04 12:28:04;;;;;;;;;;;34.20;28.00;;;;;;5029719;28;19924;-67
2023/09/04 12:30:33;;;;;;;;;;;34.20;28.30;;;;;;5031014;28;20396;-67
2023/09/04 12:32:58;;;;;;;;;;;34.10;28.60;;;;;;5030605;28;19987;-67
2023/09/04 12:35:24;;;;;;;;;;;34.10;28.50;;;;;;5030862;28;20236;-67
2023/09/04 12:37:51;;;;;;;;;;;34.20;28.50;;;;;;5030539;28;19924;-68
2023/09/04 12:40:18;;;;;;;;;;;34.10;28.80;;;;;;5031010;28;20396;-66
2023/09/04 12:42:44;;;;;;;;;;;34.00;28.80;;;;;;5029184;28;19962;-66
2023/09/04 12:45:09;;;;;;;;;;;34.00;28.90;;;;;;5030123;28;19921;-65
2023/09/04 12:47:35;;;;;;;;;;;34.00;29.20;;;;;;5030237;28;20372;-66
2023/09/04 12:50:00;;;;;;;;;;;34.20;28.80;;;;;;5029465;28;19919;-66
2023/09/04 12:52:26;;;;;;;;;;;34.20;28.60;;;;;;5030350;28;19917;-67
2023/09/04 12:54:51;;;;;;;;;;;34.00;28.60;;;;;;5030791;28;19919;-65
2023/09/04 12:57:17;;;;;;;;;;;34.00;28.80;;;;;;5030515;28;19921;-66
2023/09/04 12:59:42;;;;;;;;;;;33.90;28.60;;;;;;5030121;28;19913;-67
2023/09/04 13:02:08;;;;;;;;;;;33.90;28.70;;;;;;5030225;28;19917;-67
2023/09/04 13:04:33;;;;;;;;;;;33.80;28.80;;;;;;5030223;28;20379;-66
2023/09/04 13:06:59;;;;;;;;;;;33.70;29.00;;;;;;5030370;28;20369;-66
2023/09/04 13:09:24;;;;;;;;;;;33.50;29.30;;;;;;5030357;28;20361;-66
2023/09/04 13:11:50;;;;;;;;;;;33.50;29.20;;;;;;5030076;28;20354;-66
2023/09/04 13:14:15;;;;;;;;;;;33.40;29.10;;;;;;5030045;28;20352;-66
2023/09/04 13:16:40;;;;;;;;;;;33.20;28.90;;;;;;5030177;28;19917;-67
2023/09/04 13:19:06;;;;;;;;;;;33.00;29.50;;;;;;5028599;28;20383;-66
2023/09/04 13:21:31;;;;;;;;;;;33.00;29.30;;;;;;5029657;28;19912;-65
2023/09/04 13:23:57;;;;;;;;;;;33.00;29.30;;;;;;5030047;28;19917;-65
2023/09/04 13:26:22;;;;;;;;;;;33.00;29.40;;;;;;5028904;28;19913;-65
2023/09/04 13:28:48;;;;;;;;;;;32.90;29.60;;;;;;5029744;28;19917;-66
2023/09/04 13:31:15;;;;;;;;;;;32.80;29.70;;;;;;5029791;28;19913;-66
2023/09/04 13:33:41;;;;;;;;;;;32.80;29.90;;;;;;5029658;28;19992;-66
2023/09/04 13:36:07;;;;;;;;;;;32.80;30.00;;;;;;5029775;28;19923;-67
2023/09/04 13:38:32;;;;;;;;;;;32.60;29.90;;;;;;5029750;28;19963;-66
2023/09/04 13:40:58;;;;;;;;;;;32.50;30.20;;;;;;5029602;28;19932;-65
2023/09/04 13:43:23;;;;;;;;;;;32.30;30.40;;;;;;5029781;28;19929;-65
2023/09/04 13:45:49;;;;;;;;;;;32.30;30.70;;;;;;5029305;28;19920;-66
2023/09/04 13:48:14;;;;;;;;;;;32.20;30.90;;;;;;5029577;28;20199;-65
2023/09/04 13:50:40;;;;;;;;;;;32.00;30.90;;;;;;5029403;28;19936;-68
2023/09/04 13:53:06;;;;;;;;;;;31.60;31.50;;;;;;5030108;28;19918;-69
2023/09/04 13:55:32;;;;;;;;;;;31.40;31.70;;;;;;5029875;28;20339;-67
2023/09/04 13:57:58;;;;;;;;;;;31.20;31.80;;;;;;5029758;28;19913;-68
2023/09/04 14:00:23;;;;;;;;;;;30.90;32.00;;;;;;5030591;28;19921;-67
2023/09/04 14:02:49;;;;;;;;;;;30.80;32.00;;;;;;5033832;28;19971;-67
2023/09/04 14:05:16;;;;;;;;;;;30.60;31.90;;;;;;5033228;28;20420;-68
2023/09/04 14:07:41;;;;;;;;;;;30.40;31.80;;;;;;5033724;28;19913;-69
2023/09/04 14:10:07;;;;;;;;;;;30.30;32.10;;;;;;5033717;28;19913;-68